Time;durP1;ratioP1;P1;durP2;ratioP2;P2;SDS_P1;SDS_P2;PMS_P1;PMS_P2;Temp;Humidity;BMP_temperature;BMP_pressure;BME280_temperature;BME280_humidity;BME280_pressure;Samples;Min_cycle;Max_cycle;Signal;HPM_P1;HPM_P2
2021/10/09 00:00:11;;;;;;;;;;;;;;;21.32;46.11;96457.16;1044726;28;777;-60
2021/10/09 00:00:41;;;;;;;;;;;;;;;21.34;46.09;96465.59;1044728;28;880;-61
2021/10/09 00:01:12;;;;;;;;;;;;;;;21.33;45.91;96466.66;1044629;28;1078;-61
2021/10/09 00:01:42;;;;;;;;;;;;;;;21.32;46.04;96459.78;1044451;28;784;-61
2021/10/09 00:02:12;;;;;;;;;;;;;;;21.31;45.75;96461.63;1044709;28;1033;-60
2021/10/09 00:02:43;;;;;;;;;;;;;;;21.31;45.96;96463.50;1043480;28;843;-61
2021/10/09 00:03:13;;;;;;;;;;;;;;;21.31;45.80;96466.13;1044982;28;851;-61
2021/10/09 00:03:44;;;;;;;;;;;;;;;21.30;46.01;96454.78;1044770;28;792;-61
2021/10/09 00:04:14;;;;;;;;;;;;;;;21.31;45.76;96460.84;1044224;28;1418;-61
2021/10/09 00:04:44;;;;;;;;;;;;;;;21.31;46.07;96461.63;1044238;28;836;-61
2021/10/09 00:05:15;;;;;;;;;;;;;;;21.32;45.72;96465.06;1044537;28;975;-61
2021/10/09 00:05:45;;;;;;;;;;;;;;;21.33;46.04;96464.03;1044635;28;990;-60
2021/10/09 00:06:15;;;;;;;;;;;;;;;21.32;45.94;96459.78;1044498;28;1030;-61
2021/10/09 00:06:46;;;;;;;;;;;;;;;21.31;45.97;96460.84;1044193;28;1065;-61
2021/10/09 00:07:16;;;;;;;;;;;;;;;21.30;46.25;96460.06;1044952;28;1013;-60
2021/10/09 00:07:46;;;;;;;;;;;;;;;21.29;46.01;96463.72;1044571;28;1969;-61
2021/10/09 00:08:18;;;;;;;;;;;;;;;21.29;46.01;96461.09;1044938;28;859;-60
2021/10/09 00:08:48;;;;;;;;;;;;;;;21.30;46.04;96459.25;1044617;28;1363;-61
2021/10/09 00:09:18;;;;;;;;;;;;;;;21.30;46.10;96453.97;1044745;28;1030;-59
2021/10/09 00:09:53;;;;;;;;;;;;;;;21.29;45.78;96462.97;1045068;28;1015;-61
2021/10/09 00:10:28;;;;;;;;;;;;;;;21.28;45.88;96454.25;1044459;28;986;-60
2021/10/09 00:10:59;;;;;;;;;;;;;;;21.28;45.92;96456.88;1044224;28;967;-60
2021/10/09 00:11:37;;;;;;;;;;;;;;;21.29;45.92;96460.31;1044388;28;814;-61
2021/10/09 00:12:08;;;;;;;;;;;;;;;21.27;45.97;96450.00;1044020;28;812;-60
2021/10/09 00:12:38;;;;;;;;;;;;;;;21.25;46.02;96460.03;1044152;28;959;-61
2021/10/09 00:13:09;;;;;;;;;;;;;;;21.27;46.24;96454.53;1044429;28;1062;-61
2021/10/09 00:13:39;;;;;;;;;;;;;;;21.27;46.11;96454.53;1044660;28;848;-61
2021/10/09 00:14:10;;;;;;;;;;;;;;;21.25;45.94;96452.13;1044526;28;754;-60
2021/10/09 00:14:41;;;;;;;;;;;;;;;21.27;46.03;96455.28;1043953;28;705;-61
2021/10/09 00:15:11;;;;;;;;;;;;;;;21.27;45.93;96454.53;1044301;28;881;-61
2021/10/09 00:15:42;;;;;;;;;;;;;;;21.27;45.97;96457.16;1043952;28;736;-61
2021/10/09 00:16:13;;;;;;;;;;;;;;;21.29;45.81;96455.81;1040555;28;1176;-61
2021/10/09 00:16:44;;;;;;;;;;;;;;;21.27;45.89;96451.88;1044318;28;792;-61
2021/10/09 00:17:17;;;;;;;;;;;;;;;21.28;46.00;96450.81;1044276;28;757;-60
2021/10/09 00:17:47;;;;;;;;;;;;;;;21.26;45.91;96452.91;1043359;28;827;-61
2021/10/09 00:18:18;;;;;;;;;;;;;;;21.27;45.99;96455.28;1044801;28;1014;-61
2021/10/09 00:18:48;;;;;;;;;;;;;;;21.25;45.79;96452.13;1040277;28;1221;-61
2021/10/09 00:19:18;;;;;;;;;;;;;;;21.26;46.06;96452.91;1040361;28;848;-61
2021/10/09 00:19:49;;;;;;;;;;;;;;;21.26;45.84;96447.66;1040277;28;811;-61
2021/10/09 00:20:19;;;;;;;;;;;;;;;21.25;45.99;96452.13;1040390;28;1066;-61
2021/10/09 00:20:49;;;;;;;;;;;;;;;21.24;45.86;96449.75;1045014;28;1018;-61
2021/10/09 00:21:20;;;;;;;;;;;;;;;21.26;45.67;96452.91;1044475;28;1074;-61
2021/10/09 00:21:50;;;;;;;;;;;;;;;21.25;46.06;96451.31;1043968;28;858;-59
2021/10/09 00:22:20;;;;;;;;;;;;;;;21.24;45.97;96450.56;1044468;28;1011;-60
2021/10/09 00:22:51;;;;;;;;;;;;;;;21.25;45.92;96456.59;1044548;28;864;-60
2021/10/09 00:23:21;;;;;;;;;;;;;;;21.25;45.94;96451.31;1044422;28;784;-61
2021/10/09 00:23:52;;;;;;;;;;;;;;;21.24;45.90;96445.28;1044809;28;821;-61
2021/10/09 00:24:22;;;;;;;;;;;;;;;21.24;45.93;96447.13;1044316;28;851;-61
2021/10/09 00:24:52;;;;;;;;;;;;;;;21.24;45.90;96453.19;1045019;28;796;-61
2021/10/09 00:25:23;;;;;;;;;;;;;;;21.24;46.09;96452.38;1044665;28;780;-61
2021/10/09 00:25:55;;;;;;;;;;;;;;;21.23;45.86;96448.16;1044601;28;800;-61
2021/10/09 00:26:26;;;;;;;;;;;;;;;21.22;45.89;96457.94;1044713;28;1450;-59
2021/10/09 00:26:56;;;;;;;;;;;;;;;21.22;45.94;96451.84;1043929;28;844;-61
2021/10/09 00:27:26;;;;;;;;;;;;;;;21.23;45.86;96453.44;1044312;28;1973;-59
2021/10/09 00:27:57;;;;;;;;;;;;;;;21.23;45.79;96456.06;1044289;28;1034;-61
2021/10/09 00:28:27;;;;;;;;;;;;;;;21.22;46.08;96450.03;1044394;28;1217;-61
2021/10/09 00:28:57;;;;;;;;;;;;;;;21.23;45.88;96453.44;1044999;28;1029;-61
2021/10/09 00:29:28;;;;;;;;;;;;;;;21.22;46.06;96450.03;1044483;28;1202;-61
2021/10/09 00:29:58;;;;;;;;;;;;;;;21.22;46.16;96447.38;1044556;28;847;-61
2021/10/09 00:30:28;;;;;;;;;;;;;;;21.21;46.14;96451.06;1044469;28;1037;-61
2021/10/09 00:30:58;;;;;;;;;;;;;;;21.22;45.96;96457.94;1044383;28;1061;-60
2021/10/09 00:31:29;;;;;;;;;;;;;;;21.23;45.94;96454.22;1048568;28;809;-61
2021/10/09 00:31:59;;;;;;;;;;;;;;;21.23;45.87;96453.44;1047631;28;824;-60
2021/10/09 00:32:30;;;;;;;;;;;;;;;21.21;45.95;96451.06;1044382;28;827;-61
2021/10/09 00:33:00;;;;;;;;;;;;;;;21.22;46.06;96451.84;1043693;28;721;-60
2021/10/09 00:33:30;;;;;;;;;;;;;;;21.20;46.00;96451.31;1044793;28;800;-61
2021/10/09 00:34:01;;;;;;;;;;;;;;;21.19;45.86;96449.72;1044616;28;788;-61
2021/10/09 00:34:31;;;;;;;;;;;;;;;21.20;46.01;96446.06;1044393;28;832;-60
2021/10/09 00:35:01;;;;;;;;;;;;;;;21.20;45.52;96448.69;1044710;28;1217;-60
2021/10/09 00:35:32;;;;;;;;;;;;;;;21.20;45.91;96446.06;1044244;28;808;-61
2021/10/09 00:36:02;;;;;;;;;;;;;;;21.20;45.97;96449.50;1044117;28;871;-61
2021/10/09 00:36:33;;;;;;;;;;;;;;;21.19;45.90;96447.88;1044359;28;746;-59
2021/10/09 00:37:03;;;;;;;;;;;;;;;21.20;45.89;96451.31;1044057;28;839;-60
2021/10/09 00:37:33;;;;;;;;;;;;;;;21.19;45.79;96449.72;1044663;28;788;-61
2021/10/09 00:38:04;;;;;;;;;;;;;;;21.20;45.80;96452.13;1044633;28;716;-61
2021/10/09 00:38:34;;;;;;;;;;;;;;;21.20;45.91;96443.41;1044739;28;1259;-60
2021/10/09 00:39:04;;;;;;;;;;;;;;;21.19;45.80;96447.88;1044791;28;1022;-61
2021/10/09 00:39:35;;;;;;;;;;;;;;;21.18;45.88;96448.16;1045003;28;842;-61
2021/10/09 00:40:05;;;;;;;;;;;;;;;21.18;45.86;96446.31;1044556;28;849;-60
2021/10/09 00:40:36;;;;;;;;;;;;;;;21.17;45.94;96450.00;1044860;28;859;-61
2021/10/09 00:41:06;;;;;;;;;;;;;;;21.16;45.96;96445.00;1044870;28;983;-60
2021/10/09 00:41:36;;;;;;;;;;;;;;;21.17;46.02;96449.19;1042976;28;791;-61
2021/10/09 00:42:08;;;;;;;;;;;;;;;21.17;45.82;96449.19;1042344;28;823;-61
2021/10/09 00:42:39;;;;;;;;;;;;;;;21.16;45.87;96448.44;1039545;28;1291;-60
2021/10/09 00:43:09;;;;;;;;;;;;;;;21.17;45.69;96449.19;1036048;28;796;-60
2021/10/09 00:43:39;;;;;;;;;;;;;;;21.16;46.05;96453.69;1036410;28;776;-60
2021/10/09 00:44:13;;;;;;;;;;;;;;;21.16;45.68;96445.78;1036003;28;982;-61
2021/10/09 00:44:44;;;;;;;;;;;;;;;21.16;45.92;96445.00;1044095;28;820;-60
2021/10/09 00:45:14;;;;;;;;;;;;;;;21.15;46.03;96446.81;1044901;28;931;-60
2021/10/09 00:45:51;;;;;;;;;;;;;;;21.15;45.92;96446.03;1044613;28;720;-61
2021/10/09 00:46:22;;;;;;;;;;;;;;;21.15;45.72;96454.75;1044403;28;871;-60
2021/10/09 00:46:52;;;;;;;;;;;;;;;21.15;45.98;96443.41;1044616;28;776;-60
2021/10/09 00:47:23;;;;;;;;;;;;;;;21.15;45.94;96441.56;1043873;28;1499;-60
2021/10/09 00:47:53;;;;;;;;;;;;;;;21.15;45.98;96440.75;1039016;28;966;-61
2021/10/09 00:48:24;;;;;;;;;;;;;;;21.15;45.81;96443.41;1039573;28;1256;-61
2021/10/09 00:48:54;;;;;;;;;;;;;;;21.16;45.95;96447.63;1040514;28;804;-61
2021/10/09 00:49:24;;;;;;;;;;;;;;;21.17;45.91;96449.19;1040391;28;786;-61
2021/10/09 00:49:54;;;;;;;;;;;;;;;21.16;46.12;96450.25;1044384;28;1057;-61
2021/10/09 00:50:25;;;;;;;;;;;;;;;21.16;45.75;96452.91;1043927;28;922;-61
2021/10/09 00:50:55;;;;;;;;;;;;;;;21.17;45.87;96449.19;1044402;28;879;-61
2021/10/09 00:51:25;;;;;;;;;;;;;;;21.16;45.61;96447.63;1044710;28;847;-61
2021/10/09 00:51:56;;;;;;;;;;;;;;;21.16;45.70;96447.63;1044590;28;1010;-61
2021/10/09 00:52:26;;;;;;;;;;;;;;;21.16;45.82;96447.63;1043381;28;1013;-61
2021/10/09 00:52:57;;;;;;;;;;;;;;;21.16;45.57;96447.63;1040068;28;804;-59
2021/10/09 00:53:27;;;;;;;;;;;;;;;21.15;45.76;96451.31;1040389;28;974;-60
2021/10/09 00:53:58;;;;;;;;;;;;;;;21.14;45.99;96455.81;1040230;28;1276;-60
2021/10/09 00:54:28;;;;;;;;;;;;;;;21.15;46.06;96451.31;1043847;28;970;-62
2021/10/09 00:54:58;;;;;;;;;;;;;;;21.14;45.98;96449.72;1036088;28;1606;-61
2021/10/09 00:55:29;;;;;;;;;;;;;;;21.14;45.92;96444.47;1036360;28;1423;-61
2021/10/09 00:56:02;;;;;;;;;;;;;;;21.13;45.87;96448.13;1035601;28;1022;-61
2021/10/09 00:56:32;;;;;;;;;;;;;;;21.15;45.70;96451.31;1040618;28;901;-61
2021/10/09 00:57:02;;;;;;;;;;;;;;;21.14;45.74;96445.25;1040599;28;673;-62
2021/10/09 00:57:35;;;;;;;;;;;;;;;21.15;45.88;96446.03;1039232;28;1138;-61
2021/10/09 00:58:05;;;;;;;;;;;;;;;21.14;45.83;96450.53;1040017;28;1025;-59
2021/10/09 00:58:36;;;;;;;;;;;;;;;21.14;45.99;96453.16;1040516;28;1248;-61
2021/10/09 00:59:08;;;;;;;;;;;;;;;21.14;45.68;96449.72;1044456;28;717;-59
2021/10/09 00:59:39;;;;;;;;;;;;;;;21.14;46.08;96447.91;1044367;28;1006;-60
2021/10/09 01:00:10;;;;;;;;;;;;;;;21.15;45.88;96446.03;1043317;28;1026;-62
2021/10/09 01:00:43;;;;;;;;;;;;;;;21.13;45.87;96446.28;1043996;28;820;-61
2021/10/09 01:01:13;;;;;;;;;;;;;;;21.13;45.76;96445.50;1040832;28;800;-60
2021/10/09 01:01:44;;;;;;;;;;;;;;;21.12;45.84;96449.19;1040127;28;1344;-61
2021/10/09 01:02:14;;;;;;;;;;;;;;;21.12;45.84;96451.84;1039698;28;813;-61
2021/10/09 01:02:44;;;;;;;;;;;;;;;21.12;45.81;96443.94;1034661;28;796;-61
2021/10/09 01:03:15;;;;;;;;;;;;;;;21.15;45.76;96443.41;1036025;28;923;-60
2021/10/09 01:03:46;;;;;;;;;;;;;;;21.13;45.88;96442.88;1040363;28;859;-61
2021/10/09 01:04:16;;;;;;;;;;;;;;;21.11;45.67;96442.31;1039753;28;936;-61
2021/10/09 01:04:47;;;;;;;;;;;;;;;21.11;45.91;96442.31;1040069;28;847;-61
2021/10/09 01:05:17;;;;;;;;;;;;;;;21.10;45.95;96446.03;1040345;28;780;-60
2021/10/09 01:05:48;;;;;;;;;;;;;;;21.11;45.80;96439.69;1035917;28;789;-61
2021/10/09 01:06:18;;;;;;;;;;;;;;;21.11;45.72;96447.59;1032133;28;1331;-61
2021/10/09 01:06:49;;;;;;;;;;;;;;;21.10;45.75;96440.75;1035819;28;757;-60
2021/10/09 01:07:19;;;;;;;;;;;;;;;21.08;45.87;96441.78;1040249;28;1528;-61
2021/10/09 01:07:51;;;;;;;;;;;;;;;21.09;45.78;96442.59;1039728;28;1906;-60
2021/10/09 01:08:21;;;;;;;;;;;;;;;21.08;45.89;96440.22;1044222;28;1133;-60
2021/10/09 01:08:56;;;;;;;;;;;;;;;21.08;45.89;96442.88;1044452;28;831;-61
2021/10/09 01:09:31;;;;;;;;;;;;;;;21.08;45.93;96440.22;1044428;28;1240;-61
2021/10/09 01:10:04;;;;;;;;;;;;;;;21.07;45.80;96444.69;1040232;28;1324;-61
2021/10/09 01:10:51;;;;;;;;;;;;;;;21.08;45.94;96445.50;1035417;28;1172;-61
2021/10/09 01:11:34;;;;;;;;;;;;;;;21.08;46.02;96445.50;1031927;28;1314;-61
2021/10/09 01:12:04;;;;;;;;;;;;;;;21.08;45.95;96448.13;1035908;28;821;-60
2021/10/09 01:12:35;;;;;;;;;;;;;;;21.07;45.98;96447.34;1041258;28;741;-61
2021/10/09 01:13:05;;;;;;;;;;;;;;;21.08;45.90;96445.50;1039691;28;1357;-61
2021/10/09 01:13:36;;;;;;;;;;;;;;;21.08;45.95;96445.50;1044523;28;796;-61
2021/10/09 01:14:06;;;;;;;;;;;;;;;21.08;45.82;96456.03;1040246;28;1308;-60
2021/10/09 01:14:37;;;;;;;;;;;;;;;21.08;45.96;96442.88;1039580;28;804;-59
2021/10/09 01:15:14;;;;;;;;;;;;;;;21.08;45.54;96451.56;1039730;28;1281;-61
2021/10/09 01:15:45;;;;;;;;;;;;;;;21.09;45.85;96453.13;1037258;28;1538;-61
2021/10/09 01:16:35;;;;;;;;;;;;;;;21.07;45.70;96449.97;1037549;28;1053;-61
2021/10/09 01:17:28;;;;;;;;;;;;;;;21.06;45.99;96446.53;1043728;28;1302;-61
2021/10/09 01:18:14;;;;;;;;;;;;;;;21.07;45.84;96449.97;1044574;28;813;-60
2021/10/09 01:18:46;;;;;;;;;;;;;;;21.06;45.76;96449.19;1044557;28;1236;-61
2021/10/09 01:19:17;;;;;;;;;;;;;;;21.07;45.89;96447.34;1044748;28;753;-61
2021/10/09 01:19:47;;;;;;;;;;;;;;;21.06;45.80;96443.91;1044499;28;839;-62
2021/10/09 01:20:17;;;;;;;;;;;;;;;21.08;45.93;96446.31;1044579;28;835;-62
2021/10/09 01:20:48;;;;;;;;;;;;;;;21.07;45.65;96444.69;1044493;28;741;-61
2021/10/09 01:21:39;;;;;;;;;;;;;;;21.08;45.64;96448.13;1044155;28;1121;-62
2021/10/09 01:22:30;;;;;;;;;;;;;;;21.06;45.84;96443.91;1041677;28;1131;-61
2021/10/09 01:23:04;;;;;;;;;;;;;;;21.07;45.81;96449.97;1043632;28;804;-60
2021/10/09 01:23:35;;;;;;;;;;;;;;;21.06;45.87;96443.13;1040239;28;1470;-61
2021/10/09 01:24:08;;;;;;;;;;;;;;;21.06;45.70;96436.00;1039846;28;1310;-61
2021/10/09 01:24:58;;;;;;;;;;;;;;;21.05;45.52;96437.06;1037770;28;1077;-62
2021/10/09 01:25:42;;;;;;;;;;;;;;;21.05;45.64;96441.53;1039676;28;1291;-61
2021/10/09 01:26:13;;;;;;;;;;;;;;;21.05;45.48;96442.34;1044433;28;852;-60
2021/10/09 01:26:43;;;;;;;;;;;;;;;21.05;45.58;96439.69;1044313;28;804;-62
2021/10/09 01:27:15;;;;;;;;;;;;;;;21.05;45.49;96438.91;1044276;28;788;-61
2021/10/09 01:27:45;;;;;;;;;;;;;;;21.04;45.91;96440.72;1043512;28;1955;-61
2021/10/09 01:28:16;;;;;;;;;;;;;;;21.04;45.68;96442.59;1044250;28;805;-61
2021/10/09 01:28:50;;;;;;;;;;;;;;;21.04;45.69;96445.25;1044225;28;1237;-61
2021/10/09 01:29:20;;;;;;;;;;;;;;;21.03;45.50;96441.81;1044240;28;800;-61
2021/10/09 01:29:51;;;;;;;;;;;;;;;21.03;45.66;96441.81;1044668;28;813;-61
2021/10/09 01:30:21;;;;;;;;;;;;;;;21.03;45.71;96444.44;1044639;28;820;-61
2021/10/09 01:30:53;;;;;;;;;;;;;;;21.02;45.73;96440.19;1044549;28;978;-60
2021/10/09 01:31:23;;;;;;;;;;;;;;;21.03;45.62;96444.44;1044019;28;915;-59
2021/10/09 01:31:53;;;;;;;;;;;;;;;21.02;45.54;96442.84;1044382;28;811;-61
2021/10/09 01:32:24;;;;;;;;;;;;;;;21.03;45.82;96443.63;1044047;28;792;-62
2021/10/09 01:32:54;;;;;;;;;;;;;;;21.02;45.69;96437.56;1042641;28;1014;-60
2021/10/09 01:33:25;;;;;;;;;;;;;;;21.01;45.47;96443.88;1044334;28;855;-61
2021/10/09 01:33:55;;;;;;;;;;;;;;;21.02;45.66;96436.75;1044835;28;855;-61
2021/10/09 01:34:27;;;;;;;;;;;;;;;21.02;45.65;96442.03;1044111;28;1045;-62
2021/10/09 01:34:57;;;;;;;;;;;;;;;21.01;45.63;96441.25;1043846;28;1018;-60
2021/10/09 01:35:28;;;;;;;;;;;;;;;21.01;45.58;96441.25;1044230;28;943;-61
2021/10/09 01:35:58;;;;;;;;;;;;;;;21.00;45.61;96442.28;1043661;28;788;-60
2021/10/09 01:36:29;;;;;;;;;;;;;;;21.01;45.55;96435.16;1044002;28;734;-61
2021/10/09 01:36:59;;;;;;;;;;;;;;;21.00;45.72;96439.63;1044281;28;1497;-62
2021/10/09 01:37:39;;;;;;;;;;;;;;;21.01;45.72;96435.16;1044000;28;776;-60
2021/10/09 01:38:10;;;;;;;;;;;;;;;21.00;45.63;96439.63;1043893;28;1348;-60
2021/10/09 01:38:40;;;;;;;;;;;;;;;21.00;45.73;96444.91;1044282;28;1203;-61
2021/10/09 01:39:11;;;;;;;;;;;;;;;21.01;45.58;96441.25;1044652;28;792;-61
2021/10/09 01:39:42;;;;;;;;;;;;;;;21.00;45.93;96434.38;1044511;28;800;-61
2021/10/09 01:40:12;;;;;;;;;;;;;;;21.00;45.70;96437.00;1044368;28;992;-61
2021/10/09 01:40:43;;;;;;;;;;;;;;;21.01;45.51;96441.25;1044580;28;800;-61
2021/10/09 01:41:13;;;;;;;;;;;;;;;21.02;45.51;96442.03;1040122;28;1351;-61
2021/10/09 01:41:45;;;;;;;;;;;;;;;21.01;45.69;96437.81;1035795;28;1344;-61
2021/10/09 01:42:15;;;;;;;;;;;;;;;21.01;45.79;96430.69;1039999;28;999;-60
2021/10/09 01:42:45;;;;;;;;;;;;;;;21.00;45.54;96434.38;1039973;28;816;-61
2021/10/09 01:43:16;;;;;;;;;;;;;;;21.00;45.64;96434.38;1043810;28;998;-61
2021/10/09 01:43:46;;;;;;;;;;;;;;;21.00;45.62;96431.72;1044442;28;812;-61
2021/10/09 01:44:17;;;;;;;;;;;;;;;21.00;45.73;96436.19;1044048;28;966;-60
2021/10/09 01:44:47;;;;;;;;;;;;;;;21.00;45.59;96436.19;1044478;28;1154;-62
2021/10/09 01:45:17;;;;;;;;;;;;;;;20.98;45.30;96431.19;1044786;28;922;-61
2021/10/09 01:45:48;;;;;;;;;;;;;;;20.99;45.38;96438.06;1044493;28;772;-61
2021/10/09 01:46:18;;;;;;;;;;;;;;;20.98;45.42;96439.09;1044293;28;951;-61
2021/10/09 01:46:48;;;;;;;;;;;;;;;20.98;45.87;96436.47;1044255;28;1045;-61
2021/10/09 01:47:19;;;;;;;;;;;;;;;20.98;45.54;96433.84;1044147;28;1014;-60
2021/10/09 01:47:49;;;;;;;;;;;;;;;21.00;45.86;96442.28;1042706;28;1906;-61
2021/10/09 01:48:27;;;;;;;;;;;;;;;21.00;45.37;96433.56;1044205;28;1316;-60
2021/10/09 01:48:58;;;;;;;;;;;;;;;20.99;45.71;96435.44;1044631;28;847;-61
2021/10/09 01:49:28;;;;;;;;;;;;;;;20.99;45.56;96435.44;1044686;28;1002;-61
2021/10/09 01:49:58;;;;;;;;;;;;;;;20.99;45.66;96426.72;1044522;28;991;-61
2021/10/09 01:50:29;;;;;;;;;;;;;;;20.99;45.57;96438.06;1044654;28;1094;-61
2021/10/09 01:50:59;;;;;;;;;;;;;;;20.99;45.62;96437.28;1044589;28;855;-61
2021/10/09 01:51:30;;;;;;;;;;;;;;;20.98;45.44;96430.41;1044551;28;955;-59
2021/10/09 01:52:01;;;;;;;;;;;;;;;20.98;45.59;96430.41;1044218;28;1054;-61
2021/10/09 01:52:31;;;;;;;;;;;;;;;20.98;45.85;96430.41;1044097;28;1018;-61
2021/10/09 01:53:01;;;;;;;;;;;;;;;20.98;45.54;96431.19;1043731;28;1073;-61
2021/10/09 01:53:32;;;;;;;;;;;;;;;21.00;45.70;96429.09;1044714;28;886;-60
2021/10/09 01:54:02;;;;;;;;;;;;;;;20.99;45.72;96432.78;1044594;28;892;-61
2021/10/09 01:54:33;;;;;;;;;;;;;;;20.99;45.62;96424.09;1043886;28;1213;-61
2021/10/09 01:55:03;;;;;;;;;;;;;;;20.99;45.38;96435.44;1044158;28;741;-61
2021/10/09 01:55:37;;;;;;;;;;;;;;;20.98;45.66;96431.19;1044370;28;851;-61
2021/10/09 01:56:07;;;;;;;;;;;;;;;20.99;45.35;96429.38;1043832;28;809;-61
2021/10/09 01:56:39;;;;;;;;;;;;;;;20.98;45.43;96433.03;1044190;28;772;-61
2021/10/09 01:57:09;;;;;;;;;;;;;;;20.98;45.61;96430.41;1040672;28;1006;-61
2021/10/09 01:57:39;;;;;;;;;;;;;;;20.97;45.75;96434.09;1043788;28;792;-61
2021/10/09 01:58:10;;;;;;;;;;;;;;;20.98;45.41;96435.66;1043724;28;872;-61
2021/10/09 01:58:40;;;;;;;;;;;;;;;20.96;45.26;96430.66;1043453;28;1193;-61
2021/10/09 01:59:11;;;;;;;;;;;;;;;20.97;45.35;96434.09;1044780;28;797;-62
2021/10/09 01:59:41;;;;;;;;;;;;;;;20.95;45.72;96429.09;1044048;28;796;-61
2021/10/09 02:00:12;;;;;;;;;;;;;;;20.96;45.49;96433.31;1044746;28;986;-61
2021/10/09 02:00:42;;;;;;;;;;;;;;;20.96;45.40;96435.13;1044538;28;969;-60
2021/10/09 02:01:13;;;;;;;;;;;;;;;20.95;45.55;96434.38;1044594;28;906;-61
2021/10/09 02:01:43;;;;;;;;;;;;;;;20.96;45.49;96428.03;1044061;28;781;-61
2021/10/09 02:02:13;;;;;;;;;;;;;;;20.96;45.58;96432.50;1044329;28;759;-61
2021/10/09 02:02:44;;;;;;;;;;;;;;;20.95;45.52;96437.00;1043137;28;800;-61
2021/10/09 02:03:17;;;;;;;;;;;;;;;20.97;45.58;96428.84;1044212;28;843;-61
2021/10/09 02:03:48;;;;;;;;;;;;;;;20.96;45.52;96433.31;1044013;28;998;-62
2021/10/09 02:04:23;;;;;;;;;;;;;;;20.96;45.43;96432.50;1044353;28;773;-61
2021/10/09 02:04:54;;;;;;;;;;;;;;;20.95;45.63;96429.09;1044443;28;746;-61
2021/10/09 02:05:24;;;;;;;;;;;;;;;20.95;45.53;96429.09;1044609;28;823;-61
2021/10/09 02:05:54;;;;;;;;;;;;;;;20.95;45.59;96431.72;1044634;28;1014;-62
2021/10/09 02:06:25;;;;;;;;;;;;;;;20.95;45.36;96426.47;1044715;28;951;-61
2021/10/09 02:06:55;;;;;;;;;;;;;;;20.95;45.45;96423.81;1044071;28;839;-61
2021/10/09 02:07:25;;;;;;;;;;;;;;;20.95;45.43;96425.66;1044744;28;1014;-60
2021/10/09 02:07:56;;;;;;;;;;;;;;;20.94;45.40;96429.34;1043937;28;2017;-61
2021/10/09 02:08:26;;;;;;;;;;;;;;;20.94;45.47;96424.88;1044541;28;1328;-62
2021/10/09 02:08:57;;;;;;;;;;;;;;;20.95;45.50;96428.31;1044052;28;986;-61
2021/10/09 02:09:27;;;;;;;;;;;;;;;20.93;45.55;96431.19;1044062;28;855;-60
2021/10/09 02:09:58;;;;;;;;;;;;;;;20.94;45.46;96427.50;1044211;28;998;-60
2021/10/09 02:10:28;;;;;;;;;;;;;;;20.95;45.75;96431.72;1044298;28;730;-61
2021/10/09 02:11:04;;;;;;;;;;;;;;;20.94;45.53;96435.41;1044431;28;1122;-61
2021/10/09 02:11:41;;;;;;;;;;;;;;;20.94;45.42;96424.88;1044711;28;757;-60
2021/10/09 02:12:11;;;;;;;;;;;;;;;20.95;45.32;96430.94;1045066;28;1003;-61
2021/10/09 02:12:42;;;;;;;;;;;;;;;20.94;45.29;96431.97;1045235;28;838;-62
2021/10/09 02:13:15;;;;;;;;;;;;;;;20.94;45.46;96429.34;1044760;28;761;-62
2021/10/09 02:14:03;;;;;;;;;;;;;;;20.93;45.48;96441.75;1045522;28;860;-61
2021/10/09 02:15:16;;;;;;;;;;;;;;;20.93;45.46;96423.28;1044726;28;760;-61
2021/10/09 02:24:50;;;;;;;;;;;;;;;20.91;45.43;96420.13;1044652;28;1030;-61
2021/10/09 02:25:57;;;;;;;;;;;;;;;20.91;45.57;96420.13;1045021;28;812;-61
2021/10/09 02:26:27;;;;;;;;;;;;;;;20.90;45.49;96418.53;1045375;28;1052;-64
2021/10/09 02:26:57;;;;;;;;;;;;;;;20.90;45.49;96423.81;1045234;28;1097;-61
2021/10/09 02:27:28;;;;;;;;;;;;;;;20.90;45.42;96421.16;1044733;28;1935;-60
2021/10/09 02:27:58;;;;;;;;;;;;;;;20.90;45.42;96428.28;1045017;28;745;-61
2021/10/09 02:28:28;;;;;;;;;;;;;;;20.89;45.56;96419.59;1045473;28;1292;-61
2021/10/09 02:28:59;;;;;;;;;;;;;;;20.90;45.49;96423.81;1045293;28;681;-61
2021/10/09 02:29:29;;;;;;;;;;;;;;;20.89;45.20;96416.97;1045542;28;1123;-59
2021/10/09 02:29:59;;;;;;;;;;;;;;;20.89;45.79;96429.34;1045356;28;1021;-61
2021/10/09 02:30:30;;;;;;;;;;;;;;;20.88;45.71;96419.84;1044371;28;989;-61
2021/10/09 02:31:00;;;;;;;;;;;;;;;20.88;45.69;96412.72;1045153;28;848;-61
2021/10/09 02:31:30;;;;;;;;;;;;;;;20.89;45.46;96414.31;1045001;28;811;-60
2021/10/09 02:32:01;;;;;;;;;;;;;;;20.90;45.48;96420.38;1044736;28;855;-60
2021/10/09 02:32:31;;;;;;;;;;;;;;;20.90;45.59;96412.47;1048752;28;918;-60
2021/10/09 02:33:01;;;;;;;;;;;;;;;20.90;45.43;96420.38;1047910;28;859;-60
2021/10/09 02:33:32;;;;;;;;;;;;;;;20.89;45.18;96416.97;1045343;28;851;-61
2021/10/09 02:34:02;;;;;;;;;;;;;;;20.89;45.42;96419.59;1044891;28;792;-61
2021/10/09 02:34:33;;;;;;;;;;;;;;;20.89;45.28;96416.97;1044580;28;953;-60
2021/10/09 02:35:03;;;;;;;;;;;;;;;20.89;45.40;96419.59;1044846;28;897;-60
2021/10/09 02:35:34;;;;;;;;;;;;;;;20.89;45.41;96416.16;1044518;28;788;-61
2021/10/09 02:36:04;;;;;;;;;;;;;;;20.90;45.54;96417.72;1044486;28;777;-62
2021/10/09 02:36:35;;;;;;;;;;;;;;;20.89;45.50;96422.22;1045298;28;1073;-60
2021/10/09 02:37:05;;;;;;;;;;;;;;;20.89;45.59;96419.59;1045397;28;1052;-60
2021/10/09 02:37:35;;;;;;;;;;;;;;;20.89;45.47;96422.22;1045061;28;811;-62
2021/10/09 02:38:07;;;;;;;;;;;;;;;20.88;45.64;96420.63;1044965;28;859;-60
2021/10/09 02:38:37;;;;;;;;;;;;;;;20.88;45.63;96420.63;1045480;28;1242;-61
2021/10/09 02:39:08;;;;;;;;;;;;;;;20.88;45.57;96423.28;1045178;28;647;-61
2021/10/09 02:39:38;;;;;;;;;;;;;;;20.89;45.44;96427.50;1045173;28;642;-61
2021/10/09 02:40:09;;;;;;;;;;;;;;;20.88;45.60;96420.63;1044841;28;804;-59
2021/10/09 02:40:43;;;;;;;;;;;;;;;20.88;45.56;96423.28;1040250;28;1014;-61
2021/10/09 02:41:13;;;;;;;;;;;;;;;20.87;45.85;96421.69;1041362;28;890;-61
2021/10/09 02:41:44;;;;;;;;;;;;;;;20.88;45.58;96428.53;1044853;28;819;-61
2021/10/09 02:42:14;;;;;;;;;;;;;;;20.88;45.66;96422.47;1044479;28;860;-60
2021/10/09 02:42:44;;;;;;;;;;;;;;;20.87;45.56;96426.97;1044610;28;788;-61
2021/10/09 02:43:15;;;;;;;;;;;;;;;20.88;45.70;96422.47;1045252;28;677;-60
2021/10/09 02:43:45;;;;;;;;;;;;;;;20.87;45.56;96426.97;1045334;28;1048;-61
2021/10/09 02:44:15;;;;;;;;;;;;;;;20.86;45.29;96420.09;1044315;28;832;-59
2021/10/09 02:44:46;;;;;;;;;;;;;;;20.88;45.50;96431.19;1045052;28;799;-59
2021/10/09 02:45:16;;;;;;;;;;;;;;;20.87;45.55;96419.06;1045330;28;800;-61
2021/10/09 02:45:46;;;;;;;;;;;;;;;20.87;45.70;96428.81;1045004;28;847;-60
2021/10/09 02:46:17;;;;;;;;;;;;;;;20.87;45.43;96416.44;1045178;28;792;-59
2021/10/09 02:46:47;;;;;;;;;;;;;;;20.87;45.35;96423.53;1045197;28;870;-61
2021/10/09 02:47:17;;;;;;;;;;;;;;;20.87;45.22;96423.53;1045146;28;997;-60
2021/10/09 02:47:48;;;;;;;;;;;;;;;20.87;45.41;96419.06;1044069;28;1973;-60
2021/10/09 02:48:18;;;;;;;;;;;;;;;20.86;45.60;96425.38;1044636;28;1026;-59
2021/10/09 02:48:48;;;;;;;;;;;;;;;20.86;45.53;96417.47;1044803;28;1300;-62
2021/10/09 02:49:19;;;;;;;;;;;;;;;20.86;45.51;96427.19;1045003;28;1208;-61
2021/10/09 02:49:49;;;;;;;;;;;;;;;20.85;45.58;96421.16;1044914;28;903;-59
2021/10/09 02:50:19;;;;;;;;;;;;;;;20.86;45.12;96414.81;1044624;28;1472;-60
2021/10/09 02:50:49;;;;;;;;;;;;;;;20.88;45.51;96422.47;1044755;28;926;-61
2021/10/09 02:51:20;;;;;;;;;;;;;;;20.85;45.68;96421.16;1044749;28;1239;-58
2021/10/09 02:51:50;;;;;;;;;;;;;;;20.86;45.78;96416.66;1040450;28;1515;-59
2021/10/09 02:52:20;;;;;;;;;;;;;;;20.85;45.44;96421.16;1040528;28;510;-61
2021/10/09 02:52:51;;;;;;;;;;;;;;;20.85;45.61;96418.53;1036234;28;1324;-59
2021/10/09 02:53:21;;;;;;;;;;;;;;;20.85;45.56;96426.44;1040898;28;820;-59
2021/10/09 02:53:51;;;;;;;;;;;;;;;20.86;45.47;96425.38;1044693;28;847;-61
2021/10/09 02:54:22;;;;;;;;;;;;;;;20.85;45.03;96418.53;1044452;28;867;-60
2021/10/09 02:54:52;;;;;;;;;;;;;;;20.86;45.28;96427.19;1045213;28;819;-61
2021/10/09 02:55:23;;;;;;;;;;;;;;;20.85;45.32;96425.63;1045106;28;1217;-61
2021/10/09 02:55:53;;;;;;;;;;;;;;;20.84;45.23;96418.75;1040317;28;1522;-60
2021/10/09 02:56:23;;;;;;;;;;;;;;;20.85;45.22;96423.81;1040762;28;800;-60
2021/10/09 02:56:54;;;;;;;;;;;;;;;20.84;45.48;96422.19;1040664;28;832;-60